sensor_id;sensor_type;location;lat;lon;timestamp;temperature;humidity
3416;DHT22;1721;51.238;9.562;2023-03-04T00:01:11;5.60;91.20
3416;DHT22;1721;51.238;9.562;2023-03-04T00:03:37;5.60;91.20
3416;DHT22;1721;51.238;9.562;2023-03-04T00:06:02;5.60;90.80
3416;DHT22;1721;51.238;9.562;2023-03-04T00:08:28;5.60;91.00
3416;DHT22;1721;51.238;9.562;2023-03-04T00:10:54;5.40;91.10
3416;DHT22;1721;51.238;9.562;2023-03-04T00:13:19;5.40;91.10
3416;DHT22;1721;51.238;9.562;2023-03-04T00:15:47;5.40;91.30
3416;DHT22;1721;51.238;9.562;2023-03-04T00:18:12;5.40;91.20
3416;DHT22;1721;51.238;9.562;2023-03-04T00:20:38;5.50;91.10
3416;DHT22;1721;51.238;9.562;2023-03-04T00:23:04;5.60;90.90
3416;DHT22;1721;51.238;9.562;2023-03-04T00:25:29;5.60;91.00
3416;DHT22;1721;51.238;9.562;2023-03-04T00:27:55;5.60;91.20
3416;DHT22;1721;51.238;9.562;2023-03-04T00:30:22;5.80;90.90
3416;DHT22;1721;51.238;9.562;2023-03-04T00:32:48;5.80;90.80
3416;DHT22;1721;51.238;9.562;2023-03-04T00:35:14;5.80;90.80
3416;DHT22;1721;51.238;9.562;2023-03-04T00:37:40;5.70;90.70
3416;DHT22;1721;51.238;9.562;2023-03-04T00:40:06;5.80;91.00
3416;DHT22;1721;51.238;9.562;2023-03-04T00:42:32;5.90;90.60
3416;DHT22;1721;51.238;9.562;2023-03-04T00:44:57;5.80;90.60
3416;DHT22;1721;51.238;9.562;2023-03-04T00:47:23;5.80;90.50
3416;DHT22;1721;51.238;9.562;2023-03-04T00:49:48;5.80;90.50
3416;DHT22;1721;51.238;9.562;2023-03-04T00:52:14;6.00;90.20
3416;DHT22;1721;51.238;9.562;2023-03-04T00:54:39;6.00;90.10
3416;DHT22;1721;51.238;9.562;2023-03-04T00:57:05;5.90;90.50
3416;DHT22;1721;51.238;9.562;2023-03-04T00:59:31;5.90;90.60
3416;DHT22;1721;51.238;9.562;2023-03-04T01:01:56;5.80;90.70
3416;DHT22;1721;51.238;9.562;2023-03-04T01:04:22;5.80;90.50
3416;DHT22;1721;51.238;9.562;2023-03-04T01:06:47;5.90;90.30
3416;DHT22;1721;51.238;9.562;2023-03-04T01:09:13;6.00;90.30
3416;DHT22;1721;51.238;9.562;2023-03-04T01:11:38;5.90;90.30
3416;DHT22;1721;51.238;9.562;2023-03-04T01:14:04;5.90;90.30
3416;DHT22;1721;51.238;9.562;2023-03-04T01:16:29;5.60;90.50
3416;DHT22;1721;51.238;9.562;2023-03-04T01:18:55;5.70;90.80
3416;DHT22;1721;51.238;9.562;2023-03-04T01:21:21;5.50;90.60
3416;DHT22;1721;51.238;9.562;2023-03-04T01:23:46;5.30;90.50
3416;DHT22;1721;51.238;9.562;2023-03-04T01:26:12;5.10;90.90
3416;DHT22;1721;51.238;9.562;2023-03-04T01:28:37;5.10;91.10
3416;DHT22;1721;51.238;9.562;2023-03-04T01:31:03;5.30;90.80
3416;DHT22;1721;51.238;9.562;2023-03-04T01:33:29;5.10;91.10
3416;DHT22;1721;51.238;9.562;2023-03-04T01:35:54;5.10;91.00
3416;DHT22;1721;51.238;9.562;2023-03-04T01:38:21;5.10;91.10
3416;DHT22;1721;51.238;9.562;2023-03-04T01:40:46;4.90;91.10
3416;DHT22;1721;51.238;9.562;2023-03-04T01:43:20;5.10;91.00
3416;DHT22;1721;51.238;9.562;2023-03-04T01:45:48;5.20;91.00
3416;DHT22;1721;51.238;9.562;2023-03-04T01:48:17;5.30;90.70
3416;DHT22;1721;51.238;9.562;2023-03-04T01:50:43;5.30;90.80
3416;DHT22;1721;51.238;9.562;2023-03-04T01:53:22;5.40;90.70
3416;DHT22;1721;51.238;9.562;2023-03-04T01:55:48;5.30;90.70
3416;DHT22;1721;51.238;9.562;2023-03-04T01:58:14;5.30;90.80
3416;DHT22;1721;51.238;9.562;2023-03-04T02:00:40;5.30;91.10
3416;DHT22;1721;51.238;9.562;2023-03-04T02:03:13;5.40;90.60
3416;DHT22;1721;51.238;9.562;2023-03-04T02:05:43;5.30;90.70
3416;DHT22;1721;51.238;9.562;2023-03-04T02:08:10;5.10;91.10
3416;DHT22;1721;51.238;9.562;2023-03-04T02:10:37;5.40;91.00
3416;DHT22;1721;51.238;9.562;2023-03-04T02:13:03;5.40;90.90
3416;DHT22;1721;51.238;9.562;2023-03-04T02:15:29;5.50;90.90
3416;DHT22;1721;51.238;9.562;2023-03-04T02:17:55;5.60;90.60
3416;DHT22;1721;51.238;9.562;2023-03-04T02:20:39;5.70;90.60
3416;DHT22;1721;51.238;9.562;2023-03-04T02:26:49;5.80;90.20
3416;DHT22;1721;51.238;9.562;2023-03-04T02:29:10;5.90;90.10
3416;DHT22;1721;51.238;9.562;2023-03-04T02:31:45;5.70;90.20
3416;DHT22;1721;51.238;9.562;2023-03-04T02:34:12;5.70;90.40
3416;DHT22;1721;51.238;9.562;2023-03-04T02:36:39;5.30;90.60
3416;DHT22;1721;51.238;9.562;2023-03-04T02:41:47;5.20;90.90
3416;DHT22;1721;51.238;9.562;2023-03-04T02:44:23;5.20;91.00
3416;DHT22;1721;51.238;9.562;2023-03-04T02:46:49;5.30;91.10
3416;DHT22;1721;51.238;9.562;2023-03-04T02:49:16;5.50;90.80
3416;DHT22;1721;51.238;9.562;2023-03-04T02:51:41;5.50;90.80
3416;DHT22;1721;51.238;9.562;2023-03-04T02:54:15;5.10;91.00
3416;DHT22;1721;51.238;9.562;2023-03-04T02:56:47;5.20;91.20
3416;DHT22;1721;51.238;9.562;2023-03-04T02:59:13;5.20;91.30
3416;DHT22;1721;51.238;9.562;2023-03-04T03:01:39;5.40;91.10
3416;DHT22;1721;51.238;9.562;2023-03-04T03:04:05;5.40;91.10
3416;DHT22;1721;51.238;9.562;2023-03-04T03:06:30;5.60;90.80
3416;DHT22;1721;51.238;9.562;2023-03-04T03:08:56;5.50;90.80
3416;DHT22;1721;51.238;9.562;2023-03-04T03:11:21;5.50;90.80
3416;DHT22;1721;51.238;9.562;2023-03-04T03:13:47;5.30;91.10
3416;DHT22;1721;51.238;9.562;2023-03-04T03:16:12;5.50;91.00
3416;DHT22;1721;51.238;9.562;2023-03-04T03:18:38;5.40;90.80
3416;DHT22;1721;51.238;9.562;2023-03-04T03:21:04;5.40;90.90
3416;DHT22;1721;51.238;9.562;2023-03-04T03:23:30;5.40;91.00
3416;DHT22;1721;51.238;9.562;2023-03-04T03:25:55;5.40;90.90
3416;DHT22;1721;51.238;9.562;2023-03-04T03:28:21;5.40;91.10
3416;DHT22;1721;51.238;9.562;2023-03-04T03:30:46;5.20;91.20
3416;DHT22;1721;51.238;9.562;2023-03-04T03:33:12;5.10;91.30
3416;DHT22;1721;51.238;9.562;2023-03-04T03:35:38;5.00;91.30
3416;DHT22;1721;51.238;9.562;2023-03-04T03:38:03;5.00;91.60
3416;DHT22;1721;51.238;9.562;2023-03-04T03:40:29;5.20;91.50
3416;DHT22;1721;51.238;9.562;2023-03-04T03:42:54;5.20;91.60
3416;DHT22;1721;51.238;9.562;2023-03-04T03:45:20;5.40;91.40
3416;DHT22;1721;51.238;9.562;2023-03-04T03:47:45;5.40;91.30
3416;DHT22;1721;51.238;9.562;2023-03-04T03:50:11;5.60;91.00
3416;DHT22;1721;51.238;9.562;2023-03-04T03:52:37;5.50;91.10
3416;DHT22;1721;51.238;9.562;2023-03-04T03:55:03;5.50;90.90
3416;DHT22;1721;51.238;9.562;2023-03-04T03:57:29;5.60;91.00
3416;DHT22;1721;51.238;9.562;2023-03-04T03:59:55;5.50;91.00
3416;DHT22;1721;51.238;9.562;2023-03-04T04:02:21;5.50;90.90
3416;DHT22;1721;51.238;9.562;2023-03-04T04:04:47;5.50;91.20
3416;DHT22;1721;51.238;9.562;2023-03-04T04:07:13;5.40;91.20
3416;DHT22;1721;51.238;9.562;2023-03-04T04:09:38;5.50;91.30
3416;DHT22;1721;51.238;9.562;2023-03-04T04:12:05;5.70;91.10
3416;DHT22;1721;51.238;9.562;2023-03-04T04:14:31;5.80;90.90
3416;DHT22;1721;51.238;9.562;2023-03-04T04:16:57;5.70;91.00
3416;DHT22;1721;51.238;9.562;2023-03-04T04:19:22;5.80;90.70
3416;DHT22;1721;51.238;9.562;2023-03-04T04:21:48;5.70;90.80
3416;DHT22;1721;51.238;9.562;2023-03-04T04:24:13;5.60;90.90
3416;DHT22;1721;51.238;9.562;2023-03-04T04:26:39;5.60;91.00
3416;DHT22;1721;51.238;9.562;2023-03-04T04:29:05;5.60;91.20
3416;DHT22;1721;51.238;9.562;2023-03-04T04:31:31;5.60;90.90
3416;DHT22;1721;51.238;9.562;2023-03-04T04:33:57;5.60;91.00
3416;DHT22;1721;51.238;9.562;2023-03-04T04:36:22;5.70;90.90
3416;DHT22;1721;51.238;9.562;2023-03-04T04:38:48;5.70;90.90
3416;DHT22;1721;51.238;9.562;2023-03-04T04:41:30;5.70;90.80
3416;DHT22;1721;51.238;9.562;2023-03-04T04:43:56;5.70;90.80
3416;DHT22;1721;51.238;9.562;2023-03-04T04:46:22;5.70;90.80
3416;DHT22;1721;51.238;9.562;2023-03-04T04:48:48;5.50;90.80
3416;DHT22;1721;51.238;9.562;2023-03-04T04:51:14;5.40;91.00
3416;DHT22;1721;51.238;9.562;2023-03-04T04:53:39;5.40;91.20
3416;DHT22;1721;51.238;9.562;2023-03-04T04:56:14;5.40;91.20
3416;DHT22;1721;51.238;9.562;2023-03-04T04:58:41;5.50;91.50
3416;DHT22;1721;51.238;9.562;2023-03-04T05:01:07;5.60;91.10
3416;DHT22;1721;51.238;9.562;2023-03-04T05:03:33;5.70;91.00
3416;DHT22;1721;51.238;9.562;2023-03-04T05:05:59;5.50;90.70
3416;DHT22;1721;51.238;9.562;2023-03-04T05:08:25;5.50;90.70
3416;DHT22;1721;51.238;9.562;2023-03-04T05:10:51;5.20;91.20
3416;DHT22;1721;51.238;9.562;2023-03-04T05:13:17;5.10;91.40
3416;DHT22;1721;51.238;9.562;2023-03-04T05:15:46;5.20;91.30
3416;DHT22;1721;51.238;9.562;2023-03-04T05:18:12;5.20;91.40
3416;DHT22;1721;51.238;9.562;2023-03-04T05:20:37;5.40;91.20
3416;DHT22;1721;51.238;9.562;2023-03-04T05:23:03;5.40;91.00
3416;DHT22;1721;51.238;9.562;2023-03-04T05:25:29;5.50;91.00
3416;DHT22;1721;51.238;9.562;2023-03-04T05:27:54;5.50;91.00
3416;DHT22;1721;51.238;9.562;2023-03-04T05:30:20;5.20;91.30
3416;DHT22;1721;51.238;9.562;2023-03-04T05:32:45;5.30;91.30
3416;DHT22;1721;51.238;9.562;2023-03-04T05:35:11;5.40;91.30
3416;DHT22;1721;51.238;9.562;2023-03-04T05:37:36;5.40;91.20
3416;DHT22;1721;51.238;9.562;2023-03-04T05:40:02;5.40;91.20
3416;DHT22;1721;51.238;9.562;2023-03-04T05:42:29;5.50;91.10
3416;DHT22;1721;51.238;9.562;2023-03-04T05:44:54;5.60;91.20
3416;DHT22;1721;51.238;9.562;2023-03-04T05:47:20;5.70;91.00
3416;DHT22;1721;51.238;9.562;2023-03-04T05:49:45;5.70;91.00
3416;DHT22;1721;51.238;9.562;2023-03-04T05:52:11;5.50;91.00
3416;DHT22;1721;51.238;9.562;2023-03-04T05:54:37;5.40;91.60
3416;DHT22;1721;51.238;9.562;2023-03-04T05:57:02;5.30;91.50
3416;DHT22;1721;51.238;9.562;2023-03-04T05:59:28;5.30;91.30
3416;DHT22;1721;51.238;9.562;2023-03-04T06:01:53;5.30;91.70
3416;DHT22;1721;51.238;9.562;2023-03-04T06:04:19;5.30;91.60
3416;DHT22;1721;51.238;9.562;2023-03-04T06:06:44;5.10;91.60
3416;DHT22;1721;51.238;9.562;2023-03-04T06:09:13;5.40;91.50
3416;DHT22;1721;51.238;9.562;2023-03-04T06:11:40;5.40;91.40
3416;DHT22;1721;51.238;9.562;2023-03-04T06:14:05;5.50;91.50
3416;DHT22;1721;51.238;9.562;2023-03-04T06:16:31;5.50;91.30
3416;DHT22;1721;51.238;9.562;2023-03-04T06:18:56;5.50;91.40
3416;DHT22;1721;51.238;9.562;2023-03-04T06:21:22;5.80;91.40
3416;DHT22;1721;51.238;9.562;2023-03-04T06:23:47;5.70;91.20
3416;DHT22;1721;51.238;9.562;2023-03-04T06:26:13;5.70;91.30
3416;DHT22;1721;51.238;9.562;2023-03-04T06:28:43;5.60;91.50
3416;DHT22;1721;51.238;9.562;2023-03-04T06:31:09;5.60;91.60
3416;DHT22;1721;51.238;9.562;2023-03-04T06:33:35;5.40;91.70
3416;DHT22;1721;51.238;9.562;2023-03-04T06:36:01;5.40;92.00
3416;DHT22;1721;51.238;9.562;2023-03-04T06:38:27;5.20;92.20
3416;DHT22;1721;51.238;9.562;2023-03-04T06:40:53;5.40;92.00
3416;DHT22;1721;51.238;9.562;2023-03-04T06:43:19;5.20;92.10
3416;DHT22;1721;51.238;9.562;2023-03-04T06:45:45;5.20;92.40
3416;DHT22;1721;51.238;9.562;2023-03-04T06:48:11;5.40;92.20
3416;DHT22;1721;51.238;9.562;2023-03-04T06:50:39;5.70;91.70
3416;DHT22;1721;51.238;9.562;2023-03-04T06:53:04;5.50;91.60
3416;DHT22;1721;51.238;9.562;2023-03-04T06:55:31;5.40;91.80
3416;DHT22;1721;51.238;9.562;2023-03-04T06:57:56;5.40;92.10
3416;DHT22;1721;51.238;9.562;2023-03-04T07:00:22;5.50;91.80
3416;DHT22;1721;51.238;9.562;2023-03-04T07:02:50;5.50;91.80
3416;DHT22;1721;51.238;9.562;2023-03-04T07:05:16;5.50;91.90
3416;DHT22;1721;51.238;9.562;2023-03-04T07:07:42;5.60;91.90
3416;DHT22;1721;51.238;9.562;2023-03-04T07:10:09;5.40;91.80
3416;DHT22;1721;51.238;9.562;2023-03-04T07:12:35;5.50;91.80
3416;DHT22;1721;51.238;9.562;2023-03-04T07:15:00;5.60;91.80
3416;DHT22;1721;51.238;9.562;2023-03-04T07:17:26;5.90;91.60
3416;DHT22;1721;51.238;9.562;2023-03-04T07:19:52;5.70;91.50
3416;DHT22;1721;51.238;9.562;2023-03-04T07:22:17;5.70;91.70
3416;DHT22;1721;51.238;9.562;2023-03-04T07:24:43;5.80;91.90
3416;DHT22;1721;51.238;9.562;2023-03-04T07:27:09;5.80;91.50
3416;DHT22;1721;51.238;9.562;2023-03-04T07:29:34;5.70;91.60
3416;DHT22;1721;51.238;9.562;2023-03-04T07:32:00;5.70;91.90
3416;DHT22;1721;51.238;9.562;2023-03-04T07:34:25;5.80;91.80
3416;DHT22;1721;51.238;9.562;2023-03-04T07:36:51;5.80;91.80
3416;DHT22;1721;51.238;9.562;2023-03-04T07:39:17;5.90;91.70
3416;DHT22;1721;51.238;9.562;2023-03-04T07:41:42;5.90;91.50
3416;DHT22;1721;51.238;9.562;2023-03-04T07:44:10;5.60;92.00
3416;DHT22;1721;51.238;9.562;2023-03-04T07:46:36;5.70;92.00
3416;DHT22;1721;51.238;9.562;2023-03-04T07:49:02;5.70;92.00
3416;DHT22;1721;51.238;9.562;2023-03-04T07:51:27;6.00;91.70
3416;DHT22;1721;51.238;9.562;2023-03-04T07:53:56;5.70;92.30
3416;DHT22;1721;51.238;9.562;2023-03-04T07:56:24;5.70;92.10
3416;DHT22;1721;51.238;9.562;2023-03-04T07:58:50;5.70;92.50
3416;DHT22;1721;51.238;9.562;2023-03-04T08:01:32;5.70;92.10
3416;DHT22;1721;51.238;9.562;2023-03-04T08:03:58;5.80;92.40
3416;DHT22;1721;51.238;9.562;2023-03-04T08:06:25;5.90;92.10
3416;DHT22;1721;51.238;9.562;2023-03-04T08:08:56;6.30;91.60
3416;DHT22;1721;51.238;9.562;2023-03-04T08:11:22;6.40;91.50
3416;DHT22;1721;51.238;9.562;2023-03-04T08:13:48;6.30;91.60
3416;DHT22;1721;51.238;9.562;2023-03-04T08:16:16;6.10;92.20
3416;DHT22;1721;51.238;9.562;2023-03-04T08:18:43;6.30;92.40
3416;DHT22;1721;51.238;9.562;2023-03-04T08:21:12;6.40;91.80
3416;DHT22;1721;51.238;9.562;2023-03-04T08:23:39;6.10;91.90
3416;DHT22;1721;51.238;9.562;2023-03-04T08:26:08;6.20;92.20
3416;DHT22;1721;51.238;9.562;2023-03-04T08:28:35;6.40;91.90
3416;DHT22;1721;51.238;9.562;2023-03-04T08:31:00;6.60;91.60
3416;DHT22;1721;51.238;9.562;2023-03-04T08:33:26;6.70;91.30
3416;DHT22;1721;51.238;9.562;2023-03-04T08:35:52;6.70;91.30
3416;DHT22;1721;51.238;9.562;2023-03-04T08:38:17;6.80;91.30
3416;DHT22;1721;51.238;9.562;2023-03-04T08:40:43;6.90;91.00
3416;DHT22;1721;51.238;9.562;2023-03-04T08:43:08;6.80;90.80
3416;DHT22;1721;51.238;9.562;2023-03-04T08:45:34;6.60;91.50
3416;DHT22;1721;51.238;9.562;2023-03-04T08:48:00;6.80;91.30
3416;DHT22;1721;51.238;9.562;2023-03-04T08:50:26;6.80;91.80
3416;DHT22;1721;51.238;9.562;2023-03-04T08:52:52;6.90;91.10
3416;DHT22;1721;51.238;9.562;2023-03-04T08:55:17;6.80;91.40
3416;DHT22;1721;51.238;9.562;2023-03-04T08:57:43;7.00;91.50
3416;DHT22;1721;51.238;9.562;2023-03-04T09:00:09;7.20;91.60
3416;DHT22;1721;51.238;9.562;2023-03-04T09:02:35;7.40;91.10
3416;DHT22;1721;51.238;9.562;2023-03-04T09:05:00;7.50;90.70
3416;DHT22;1721;51.238;9.562;2023-03-04T09:07:26;7.60;90.90
3416;DHT22;1721;51.238;9.562;2023-03-04T09:09:51;7.60;90.40
3416;DHT22;1721;51.238;9.562;2023-03-04T09:12:17;7.50;90.50
3416;DHT22;1721;51.238;9.562;2023-03-04T09:14:42;7.30;90.70
3416;DHT22;1721;51.238;9.562;2023-03-04T09:17:08;7.40;91.10
3416;DHT22;1721;51.238;9.562;2023-03-04T09:19:34;7.70;90.70
3416;DHT22;1721;51.238;9.562;2023-03-04T09:21:59;7.40;90.70
3416;DHT22;1721;51.238;9.562;2023-03-04T09:24:26;7.40;91.30
3416;DHT22;1721;51.238;9.562;2023-03-04T09:26:52;7.40;91.20
3416;DHT22;1721;51.238;9.562;2023-03-04T09:29:18;7.80;90.70
3416;DHT22;1721;51.238;9.562;2023-03-04T09:31:44;7.90;90.40
3416;DHT22;1721;51.238;9.562;2023-03-04T09:34:09;7.60;91.00
3416;DHT22;1721;51.238;9.562;2023-03-04T09:36:36;7.60;91.10
3416;DHT22;1721;51.238;9.562;2023-03-04T09:39:02;7.70;91.00
3416;DHT22;1721;51.238;9.562;2023-03-04T09:41:36;7.50;91.00
3416;DHT22;1721;51.238;9.562;2023-03-04T09:44:11;7.40;91.40
3416;DHT22;1721;51.238;9.562;2023-03-04T09:46:38;7.40;91.60
3416;DHT22;1721;51.238;9.562;2023-03-04T09:49:05;7.10;91.50
3416;DHT22;1721;51.238;9.562;2023-03-04T09:51:52;7.20;91.80
3416;DHT22;1721;51.238;9.562;2023-03-04T09:57:28;7.40;91.40
3416;DHT22;1721;51.238;9.562;2023-03-04T10:05:24;7.50;91.50
3416;DHT22;1721;51.238;9.562;2023-03-04T10:10:45;7.40;91.70
3416;DHT22;1721;51.238;9.562;2023-03-04T10:13:17;6.90;92.00
3416;DHT22;1721;51.238;9.562;2023-03-04T10:15:48;6.90;92.50
3416;DHT22;1721;51.238;9.562;2023-03-04T10:18:17;6.70;92.80
3416;DHT22;1721;51.238;9.562;2023-03-04T10:23:32;7.10;92.50
3416;DHT22;1721;51.238;9.562;2023-03-04T10:25:58;7.30;92.40
3416;DHT22;1721;51.238;9.562;2023-03-04T10:28:28;7.50;92.30
3416;DHT22;1721;51.238;9.562;2023-03-04T10:33:39;7.90;91.40
3416;DHT22;1721;51.238;9.562;2023-03-04T10:38:53;7.30;92.30
3416;DHT22;1721;51.238;9.562;2023-03-04T10:41:21;7.30;92.40
3416;DHT22;1721;51.238;9.562;2023-03-04T10:43:59;7.10;92.60
3416;DHT22;1721;51.238;9.562;2023-03-04T10:46:25;7.20;92.60
3416;DHT22;1721;51.238;9.562;2023-03-04T10:48:52;7.50;92.40
3416;DHT22;1721;51.238;9.562;2023-03-04T10:51:28;7.60;92.20
3416;DHT22;1721;51.238;9.562;2023-03-04T10:54:08;7.80;92.00
3416;DHT22;1721;51.238;9.562;2023-03-04T10:56:40;7.70;92.30
3416;DHT22;1721;51.238;9.562;2023-03-04T11:01:53;8.10;91.80
3416;DHT22;1721;51.238;9.562;2023-03-04T11:04:22;8.10;91.50
3416;DHT22;1721;51.238;9.562;2023-03-04T11:06:50;8.10;91.60
3416;DHT22;1721;51.238;9.562;2023-03-04T11:09:30;8.00;91.90
3416;DHT22;1721;51.238;9.562;2023-03-04T11:11:59;8.00;91.90
3416;DHT22;1721;51.238;9.562;2023-03-04T11:14:40;8.00;92.20
3416;DHT22;1721;51.238;9.562;2023-03-04T11:20:36;7.90;91.80
3416;DHT22;1721;51.238;9.562;2023-03-04T11:23:29;7.80;91.60
3416;DHT22;1721;51.238;9.562;2023-03-04T11:26:01;7.60;92.40
3416;DHT22;1721;51.238;9.562;2023-03-04T11:28:46;7.40;92.70
3416;DHT22;1721;51.238;9.562;2023-03-04T11:31:17;7.40;92.70
3416;DHT22;1721;51.238;9.562;2023-03-04T11:37:20;7.30;92.60
3416;DHT22;1721;51.238;9.562;2023-03-04T11:39:53;7.40;93.00
3416;DHT22;1721;51.238;9.562;2023-03-04T11:42:40;7.50;92.50
3416;DHT22;1721;51.238;9.562;2023-03-04T11:45:22;7.60;92.80
3416;DHT22;1721;51.238;9.562;2023-03-04T11:47:55;7.80;92.70
3416;DHT22;1721;51.238;9.562;2023-03-04T11:56:00;7.50;92.50
3416;DHT22;1721;51.238;9.562;2023-03-04T12:06:59;7.20;93.50
3416;DHT22;1721;51.238;9.562;2023-03-04T12:18:04;7.20;93.50
3416;DHT22;1721;51.238;9.562;2023-03-04T12:21:06;7.30;94.00
3416;DHT22;1721;51.238;9.562;2023-03-04T12:26:44;7.70;93.40
3416;DHT22;1721;51.238;9.562;2023-03-04T12:34:38;7.60;93.40
3416;DHT22;1721;51.238;9.562;2023-03-04T12:42:49;8.10;92.60
3416;DHT22;1721;51.238;9.562;2023-03-04T12:45:26;8.30;92.30
3416;DHT22;1721;51.238;9.562;2023-03-04T12:50:51;8.10;92.80
3416;DHT22;1721;51.238;9.562;2023-03-04T12:56:02;7.90;93.30
3416;DHT22;1721;51.238;9.562;2023-03-04T12:58:33;7.90;93.50
3416;DHT22;1721;51.238;9.562;2023-03-04T13:01:15;7.60;92.90
3416;DHT22;1721;51.238;9.562;2023-03-04T13:04:02;7.20;93.40
3416;DHT22;1721;51.238;9.562;2023-03-04T13:06:49;7.30;93.40
3416;DHT22;1721;51.238;9.562;2023-03-04T13:10:20;7.20;93.50
3416;DHT22;1721;51.238;9.562;2023-03-04T13:12:21;7.30;93.40
3416;DHT22;1721;51.238;9.562;2023-03-04T13:17:38;7.60;93.30
3416;DHT22;1721;51.238;9.562;2023-03-04T13:25:39;7.50;93.30
3416;DHT22;1721;51.238;9.562;2023-03-04T13:36:04;7.70;92.80
3416;DHT22;1721;51.238;9.562;2023-03-04T13:38:36;7.60;92.80
3416;DHT22;1721;51.238;9.562;2023-03-04T13:41:22;7.60;92.90
3416;DHT22;1721;51.238;9.562;2023-03-04T13:43:51;7.60;92.70
3416;DHT22;1721;51.238;9.562;2023-03-04T13:48:57;7.30;92.80
3416;DHT22;1721;51.238;9.562;2023-03-04T13:51:37;7.30;93.10
3416;DHT22;1721;51.238;9.562;2023-03-04T13:54:29;7.40;92.90
3416;DHT22;1721;51.238;9.562;2023-03-04T13:57:18;7.30;93.10
3416;DHT22;1721;51.238;9.562;2023-03-04T13:59:53;7.30;93.10
3416;DHT22;1721;51.238;9.562;2023-03-04T14:02:22;7.20;93.50
3416;DHT22;1721;51.238;9.562;2023-03-04T14:12:34;7.00;93.10
3416;DHT22;1721;51.238;9.562;2023-03-04T14:15:05;7.10;93.30
3416;DHT22;1721;51.238;9.562;2023-03-04T14:17:33;6.90;93.40
3416;DHT22;1721;51.238;9.562;2023-03-04T14:20:00;7.00;93.30
3416;DHT22;1721;51.238;9.562;2023-03-04T14:22:40;7.10;93.50
3416;DHT22;1721;51.238;9.562;2023-03-04T14:27:37;6.90;93.30
3416;DHT22;1721;51.238;9.562;2023-03-04T14:30:27;7.10;93.30
3416;DHT22;1721;51.238;9.562;2023-03-04T14:32:55;7.10;93.60
3416;DHT22;1721;51.238;9.562;2023-03-04T14:35:25;7.20;93.60
3416;DHT22;1721;51.238;9.562;2023-03-04T14:40:26;7.20;93.10
3416;DHT22;1721;51.238;9.562;2023-03-04T14:42:58;7.20;92.90
3416;DHT22;1721;51.238;9.562;2023-03-04T14:45:26;7.30;92.90
3416;DHT22;1721;51.238;9.562;2023-03-04T14:47:55;7.30;92.40
3416;DHT22;1721;51.238;9.562;2023-03-04T14:50:22;7.30;92.50
3416;DHT22;1721;51.238;9.562;2023-03-04T14:52:49;7.30;92.60
3416;DHT22;1721;51.238;9.562;2023-03-04T14:55:27;7.20;92.60
3416;DHT22;1721;51.238;9.562;2023-03-04T14:58:20;7.20;92.70
3416;DHT22;1721;51.238;9.562;2023-03-04T15:00:46;7.40;92.50
3416;DHT22;1721;51.238;9.562;2023-03-04T15:03:21;7.40;92.50
3416;DHT22;1721;51.238;9.562;2023-03-04T15:05:48;7.20;92.70
3416;DHT22;1721;51.238;9.562;2023-03-04T15:08:21;7.00;93.20
3416;DHT22;1721;51.238;9.562;2023-03-04T15:10:59;7.10;93.10
3416;DHT22;1721;51.238;9.562;2023-03-04T15:13:43;7.00;93.20
3416;DHT22;1721;51.238;9.562;2023-03-04T15:16:12;7.00;93.30
3416;DHT22;1721;51.238;9.562;2023-03-04T15:18:38;7.00;93.40
3416;DHT22;1721;51.238;9.562;2023-03-04T15:23:44;7.00;93.90
3416;DHT22;1721;51.238;9.562;2023-03-04T15:26:11;7.00;94.30
3416;DHT22;1721;51.238;9.562;2023-03-04T15:28:39;7.00;94.80
3416;DHT22;1721;51.238;9.562;2023-03-04T15:31:18;7.00;94.50
3416;DHT22;1721;51.238;9.562;2023-03-04T15:33:44;6.70;94.90
3416;DHT22;1721;51.238;9.562;2023-03-04T15:36:18;6.80;94.70
3416;DHT22;1721;51.238;9.562;2023-03-04T15:38:48;6.90;94.20
3416;DHT22;1721;51.238;9.562;2023-03-04T15:41:20;6.70;94.30
3416;DHT22;1721;51.238;9.562;2023-03-04T15:43:46;6.70;94.30
3416;DHT22;1721;51.238;9.562;2023-03-04T15:46:12;6.80;94.50
3416;DHT22;1721;51.238;9.562;2023-03-04T15:48:38;6.80;94.00
3416;DHT22;1721;51.238;9.562;2023-03-04T15:51:09;6.80;94.00
3416;DHT22;1721;51.238;9.562;2023-03-04T15:53:38;6.70;94.10
3416;DHT22;1721;51.238;9.562;2023-03-04T15:56:09;6.90;94.00
3416;DHT22;1721;51.238;9.562;2023-03-04T15:58:36;7.00;93.60
3416;DHT22;1721;51.238;9.562;2023-03-04T16:01:04;7.20;93.30
3416;DHT22;1721;51.238;9.562;2023-03-04T16:03:29;7.10;93.00
3416;DHT22;1721;51.238;9.562;2023-03-04T16:05:55;7.00;93.10
3416;DHT22;1721;51.238;9.562;2023-03-04T16:08:22;7.10;92.90
3416;DHT22;1721;51.238;9.562;2023-03-04T16:10:50;7.10;93.00
3416;DHT22;1721;51.238;9.562;2023-03-04T16:13:18;7.00;93.10
3416;DHT22;1721;51.238;9.562;2023-03-04T16:15:44;6.70;93.10
3416;DHT22;1721;51.238;9.562;2023-03-04T16:18:11;6.70;93.40
3416;DHT22;1721;51.238;9.562;2023-03-04T16:20:38;6.60;93.60
3416;DHT22;1721;51.238;9.562;2023-03-04T16:23:05;6.50;94.00
3416;DHT22;1721;51.238;9.562;2023-03-04T16:25:30;6.40;94.30
3416;DHT22;1721;51.238;9.562;2023-03-04T16:27:57;6.50;94.30
3416;DHT22;1721;51.238;9.562;2023-03-04T16:30:27;6.60;94.10
3416;DHT22;1721;51.238;9.562;2023-03-04T16:32:52;6.60;94.30
3416;DHT22;1721;51.238;9.562;2023-03-04T16:35:19;6.70;94.30
3416;DHT22;1721;51.238;9.562;2023-03-04T16:37:46;6.80;94.50
3416;DHT22;1721;51.238;9.562;2023-03-04T16:40:18;6.80;94.70
3416;DHT22;1721;51.238;9.562;2023-03-04T16:42:44;6.60;95.30
3416;DHT22;1721;51.238;9.562;2023-03-04T16:45:18;6.70;95.40
3416;DHT22;1721;51.238;9.562;2023-03-04T16:47:44;6.90;95.30
3416;DHT22;1721;51.238;9.562;2023-03-04T16:50:14;6.90;95.20
3416;DHT22;1721;51.238;9.562;2023-03-04T16:52:43;7.00;94.40
3416;DHT22;1721;51.238;9.562;2023-03-04T16:55:18;6.90;94.40
3416;DHT22;1721;51.238;9.562;2023-03-04T16:57:44;6.60;94.00
3416;DHT22;1721;51.238;9.562;2023-03-04T17:00:10;6.60;93.90
3416;DHT22;1721;51.238;9.562;2023-03-04T17:02:36;6.40;93.80
3416;DHT22;1721;51.238;9.562;2023-03-04T17:05:02;6.60;93.30
3416;DHT22;1721;51.238;9.562;2023-03-04T17:07:28;6.70;93.20
3416;DHT22;1721;51.238;9.562;2023-03-04T17:09:54;6.40;93.20
3416;DHT22;1721;51.238;9.562;2023-03-04T17:12:19;6.40;93.50
3416;DHT22;1721;51.238;9.562;2023-03-04T17:14:45;6.50;93.20
3416;DHT22;1721;51.238;9.562;2023-03-04T17:17:11;6.60;93.10
3416;DHT22;1721;51.238;9.562;2023-03-04T17:19:36;6.60;92.90
3416;DHT22;1721;51.238;9.562;2023-03-04T17:22:02;6.50;93.00
3416;DHT22;1721;51.238;9.562;2023-03-04T17:24:28;6.40;92.70
3416;DHT22;1721;51.238;9.562;2023-03-04T17:26:53;6.40;92.90
3416;DHT22;1721;51.238;9.562;2023-03-04T17:29:19;6.40;93.10
3416;DHT22;1721;51.238;9.562;2023-03-04T17:31:45;6.40;93.00
3416;DHT22;1721;51.238;9.562;2023-03-04T17:34:11;6.30;93.10
3416;DHT22;1721;51.238;9.562;2023-03-04T17:36:37;6.30;93.20
3416;DHT22;1721;51.238;9.562;2023-03-04T17:39:04;6.40;93.10
3416;DHT22;1721;51.238;9.562;2023-03-04T17:41:29;6.50;92.80
3416;DHT22;1721;51.238;9.562;2023-03-04T17:43:55;6.50;92.50
3416;DHT22;1721;51.238;9.562;2023-03-04T17:46:23;6.50;93.00
3416;DHT22;1721;51.238;9.562;2023-03-04T17:48:54;6.60;92.70
3416;DHT22;1721;51.238;9.562;2023-03-04T17:51:30;6.60;92.80
3416;DHT22;1721;51.238;9.562;2023-03-04T17:53:56;6.70;92.80
3416;DHT22;1721;51.238;9.562;2023-03-04T17:56:22;6.80;92.80
3416;DHT22;1721;51.238;9.562;2023-03-04T17:58:50;6.80;92.70
3416;DHT22;1721;51.238;9.562;2023-03-04T18:01:18;6.70;92.90
3416;DHT22;1721;51.238;9.562;2023-03-04T18:03:44;6.60;93.70
3416;DHT22;1721;51.238;9.562;2023-03-04T18:06:10;6.40;94.30
3416;DHT22;1721;51.238;9.562;2023-03-04T18:08:36;6.20;94.90
3416;DHT22;1721;51.238;9.562;2023-03-04T18:11:01;6.30;94.80
3416;DHT22;1721;51.238;9.562;2023-03-04T18:13:27;6.30;94.90
3416;DHT22;1721;51.238;9.562;2023-03-04T18:15:53;6.30;95.10